KSKA

Fairchild AFB Airport

Spokane, Washington, USA
METAR KSKA 221758Z 18009KT 10SM OVC014 M01/M01 A3033 RMK AO2A SNB11E42 CIG 013 RWY05 SLP302 P0000 60000 T10081008 11008 21024 58003 $
Observed Flight Rules
Jan-22 @ 17:58 UTC (an hour ago) Marginal Visual Flight Rules
Wind Visibility Clouds
180° at 9 knots 10 miles
  • Overcast at 1,400' AGL
Temperatures Readings Precipitation
Current -1°C / 30°F
Dewpoint -1°C / 30°F
Humidity 100%
Altimeter 30.33" Hg
Pressure 1030.2 hPa
Elevation 750
Current Rain 0.01
METAR KSKA 221758Z 18009KT 10SM OVC014 M01/M01 A3033 RMK AO2A SNB11E42 CIG 013 RWY05 SLP302 P0000 60000 T10081008 11008 21024 58003 $
Observed Flight Rules
Jan-22 @ 17:58 UTC
(an hour ago)
MVFR
Wind Visibility
180° at 9 knots 10 miles
Clouds
  • Overcast at 1,400' AGL
Temperature Dewpoint
-1°C / 30°F -1°C / 30°F
Humidity Altimeter Pressure
100% 30.33" Hg 1030.2 hPa
Current Rain
0.01